Weather at Sanday Airport

Public forecast

Using degrees Celsius for public forecast. Weather courtesy of forecast.io.

Closest aviation weather report (METAR) to Sanday Airport

Closest report is Kirkwall Airport, 20.3 nm (37.5 km) SSW.

2024/07/17 12:20 (retrieved 32 minutes ago)

EGPA 171220Z 25005KT 9999 FEW016 BKN027 14/10 Q1016

Closest aviation forecast (TAF) to Sanday Airport

Closest forecast is RAF Lossiemouth, 95.8 nm (177.4 km) SSW.

2024/07/17 12:45 (retrieved 7 minutes ago)

TAF TAF EGQS 171039Z 1712/1806 26012KT 9999 FEW045